sensor_id;sensor_type;location;lat;lon;timestamp;P1;durP1;ratioP1;P2;durP2;ratioP2
25810;SDS011;13645;52.460;13.910;2022-11-15T00:00:55;216.73;;;25.27;;
25810;SDS011;13645;52.460;13.910;2022-11-15T00:03:23;361.33;;;29.48;;
25810;SDS011;13645;52.460;13.910;2022-11-15T00:05:51;225.75;;;25.75;;
25810;SDS011;13645;52.460;13.910;2022-11-15T00:08:18;103.50;;;25.48;;
25810;SDS011;13645;52.460;13.910;2022-11-15T00:10:58;317.55;;;29.17;;
25810;SDS011;13645;52.460;13.910;2022-11-15T00:13:26;271.42;;;28.52;;
25810;SDS011;13645;52.460;13.910;2022-11-15T00:15:56;338.95;;;29.70;;
25810;SDS011;13645;52.460;13.910;2022-11-15T00:18:24;60.83;;;24.73;;
25810;SDS011;13645;52.460;13.910;2022-11-15T00:20:51;101.90;;;25.27;;
25810;SDS011;13645;52.460;13.910;2022-11-15T00:23:18;211.95;;;24.90;;
25810;SDS011;13645;52.460;13.910;2022-11-15T00:25:45;234.10;;;26.35;;
25810;SDS011;13645;52.460;13.910;2022-11-15T00:28:11;143.55;;;23.23;;
25810;SDS011;13645;52.460;13.910;2022-11-15T00:30:38;113.80;;;23.83;;
25810;SDS011;13645;52.460;13.910;2022-11-15T00:33:05;561.88;;;33.42;;
25810;SDS011;13645;52.460;13.910;2022-11-15T00:35:33;432.60;;;31.10;;
25810;SDS011;13645;52.460;13.910;2022-11-15T00:38:00;701.03;;;35.65;;
25810;SDS011;13645;52.460;13.910;2022-11-15T00:40:28;97.82;;;25.15;;
25810;SDS011;13645;52.460;13.910;2022-11-15T00:42:55;345.48;;;30.42;;
25810;SDS011;13645;52.460;13.910;2022-11-15T00:45:22;287.50;;;28.48;;
25810;SDS011;13645;52.460;13.910;2022-11-15T00:47:49;246.00;;;28.25;;
25810;SDS011;13645;52.460;13.910;2022-11-15T00:50:16;96.00;;;26.23;;
25810;SDS011;13645;52.460;13.910;2022-11-15T00:52:43;99.65;;;26.95;;
25810;SDS011;13645;52.460;13.910;2022-11-15T00:55:14;185.95;;;29.98;;
25810;SDS011;13645;52.460;13.910;2022-11-15T00:57:42;74.43;;;26.40;;
25810;SDS011;13645;52.460;13.910;2022-11-15T01:00:09;285.73;;;31.38;;
25810;SDS011;13645;52.460;13.910;2022-11-15T01:02:36;73.50;;;27.58;;
25810;SDS011;13645;52.460;13.910;2022-11-15T01:05:03;85.75;;;27.98;;
25810;SDS011;13645;52.460;13.910;2022-11-15T01:07:30;77.90;;;27.88;;
25810;SDS011;13645;52.460;13.910;2022-11-15T01:09:57;79.15;;;29.33;;
25810;SDS011;13645;52.460;13.910;2022-11-15T01:12:24;138.52;;;28.20;;
25810;SDS011;13645;52.460;13.910;2022-11-15T01:14:50;73.93;;;26.15;;
25810;SDS011;13645;52.460;13.910;2022-11-15T01:17:18;265.35;;;31.25;;
25810;SDS011;13645;52.460;13.910;2022-11-15T01:19:45;113.20;;;27.83;;
25810;SDS011;13645;52.460;13.910;2022-11-15T01:22:11;136.70;;;29.02;;
25810;SDS011;13645;52.460;13.910;2022-11-15T01:24:38;133.35;;;29.75;;
25810;SDS011;13645;52.460;13.910;2022-11-15T01:34:58;47.40;;;28.27;;
25810;SDS011;13645;52.460;13.910;2022-11-15T01:37:25;61.45;;;28.60;;
25810;SDS011;13645;52.460;13.910;2022-11-15T01:39:51;54.88;;;29.70;;
25810;SDS011;13645;52.460;13.910;2022-11-15T01:42:18;63.67;;;29.83;;
25810;SDS011;13645;52.460;13.910;2022-11-15T01:44:46;62.33;;;30.50;;
25810;SDS011;13645;52.460;13.910;2022-11-15T01:47:18;74.60;;;31.58;;
25810;SDS011;13645;52.460;13.910;2022-11-15T01:49:49;59.65;;;31.10;;
25810;SDS011;13645;52.460;13.910;2022-11-15T01:52:35;48.08;;;29.77;;
25810;SDS011;13645;52.460;13.910;2022-11-15T01:57:52;110.30;;;31.13;;
25810;SDS011;13645;52.460;13.910;2022-11-15T02:00:22;51.28;;;29.48;;
25810;SDS011;13645;52.460;13.910;2022-11-15T02:02:48;54.25;;;30.50;;
25810;SDS011;13645;52.460;13.910;2022-11-15T02:05:16;59.75;;;30.38;;
25810;SDS011;13645;52.460;13.910;2022-11-15T02:07:43;95.97;;;30.17;;
25810;SDS011;13645;52.460;13.910;2022-11-15T02:10:17;76.68;;;29.52;;
25810;SDS011;13645;52.460;13.910;2022-11-15T02:12:46;84.65;;;31.23;;
25810;SDS011;13645;52.460;13.910;2022-11-15T02:15:14;126.68;;;30.67;;
25810;SDS011;13645;52.460;13.910;2022-11-15T02:17:50;93.53;;;29.92;;
25810;SDS011;13645;52.460;13.910;2022-11-15T02:26:46;65.20;;;27.83;;
25810;SDS011;13645;52.460;13.910;2022-11-15T02:32:35;67.53;;;28.98;;
25810;SDS011;13645;52.460;13.910;2022-11-15T02:35:20;65.38;;;27.70;;
25810;SDS011;13645;52.460;13.910;2022-11-15T02:37:56;52.75;;;26.92;;
25810;SDS011;13645;52.460;13.910;2022-11-15T02:43:04;116.55;;;27.98;;
25810;SDS011;13645;52.460;13.910;2022-11-15T02:46:04;212.75;;;28.83;;
25810;SDS011;13645;52.460;13.910;2022-11-15T02:49:17;158.23;;;27.63;;
25810;SDS011;13645;52.460;13.910;2022-11-15T02:51:45;181.35;;;29.00;;
25810;SDS011;13645;52.460;13.910;2022-11-15T02:54:24;59.35;;;26.42;;
25810;SDS011;13645;52.460;13.910;2022-11-15T02:56:53;141.63;;;26.63;;
25810;SDS011;13645;52.460;13.910;2022-11-15T03:07:54;87.63;;;23.90;;
25810;SDS011;13645;52.460;13.910;2022-11-15T03:16:30;99.00;;;26.63;;
25810;SDS011;13645;52.460;13.910;2022-11-15T03:21:36;88.32;;;25.27;;
25810;SDS011;13645;52.460;13.910;2022-11-15T03:24:06;55.25;;;23.55;;
25810;SDS011;13645;52.460;13.910;2022-11-15T03:26:35;76.32;;;24.35;;
25810;SDS011;13645;52.460;13.910;2022-11-15T03:29:06;99.43;;;25.25;;
25810;SDS011;13645;52.460;13.910;2022-11-15T03:31:42;157.80;;;25.65;;
25810;SDS011;13645;52.460;13.910;2022-11-15T03:34:24;90.22;;;24.42;;
25810;SDS011;13645;52.460;13.910;2022-11-15T03:36:55;57.20;;;24.52;;
25810;SDS011;13645;52.460;13.910;2022-11-15T03:39:22;119.32;;;26.38;;
25810;SDS011;13645;52.460;13.910;2022-11-15T03:44:24;86.18;;;25.40;;
25810;SDS011;13645;52.460;13.910;2022-11-15T03:47:11;45.90;;;23.42;;
25810;SDS011;13645;52.460;13.910;2022-11-15T03:49:43;51.95;;;23.58;;
25810;SDS011;13645;52.460;13.910;2022-11-15T03:52:17;58.08;;;26.88;;
25810;SDS011;13645;52.460;13.910;2022-11-15T03:54:53;68.05;;;26.63;;
25810;SDS011;13645;52.460;13.910;2022-11-15T03:57:21;44.13;;;24.00;;
25810;SDS011;13645;52.460;13.910;2022-11-15T03:59:48;121.05;;;25.50;;
25810;SDS011;13645;52.460;13.910;2022-11-15T04:02:15;162.02;;;26.38;;
25810;SDS011;13645;52.460;13.910;2022-11-15T04:04:41;211.38;;;26.63;;
25810;SDS011;13645;52.460;13.910;2022-11-15T04:07:08;121.13;;;25.27;;
25810;SDS011;13645;52.460;13.910;2022-11-15T04:09:35;116.57;;;27.98;;
25810;SDS011;13645;52.460;13.910;2022-11-15T04:12:24;45.03;;;25.80;;
25810;SDS011;13645;52.460;13.910;2022-11-15T04:17:40;93.00;;;27.48;;
25810;SDS011;13645;52.460;13.910;2022-11-15T04:22:58;108.40;;;26.80;;
25810;SDS011;13645;52.460;13.910;2022-11-15T04:25:44;40.78;;;25.33;;
25810;SDS011;13645;52.460;13.910;2022-11-15T04:28:12;132.50;;;25.38;;
25810;SDS011;13645;52.460;13.910;2022-11-15T04:30:39;113.80;;;24.83;;
25810;SDS011;13645;52.460;13.910;2022-11-15T04:33:05;94.88;;;24.95;;
25810;SDS011;13645;52.460;13.910;2022-11-15T04:35:32;54.47;;;23.60;;
25810;SDS011;13645;52.460;13.910;2022-11-15T04:37:59;54.28;;;22.05;;
25810;SDS011;13645;52.460;13.910;2022-11-15T04:40:26;108.82;;;23.88;;
25810;SDS011;13645;52.460;13.910;2022-11-15T04:42:53;80.22;;;23.10;;
25810;SDS011;13645;52.460;13.910;2022-11-15T04:47:53;124.45;;;24.15;;
25810;SDS011;13645;52.460;13.910;2022-11-15T04:50:20;86.25;;;22.88;;
25810;SDS011;13645;52.460;13.910;2022-11-15T04:52:51;80.45;;;23.10;;
25810;SDS011;13645;52.460;13.910;2022-11-15T04:55:19;56.75;;;23.80;;
25810;SDS011;13645;52.460;13.910;2022-11-15T04:57:46;69.45;;;23.60;;
25810;SDS011;13645;52.460;13.910;2022-11-15T05:00:14;139.68;;;25.02;;
25810;SDS011;13645;52.460;13.910;2022-11-15T05:02:42;177.77;;;25.02;;
25810;SDS011;13645;52.460;13.910;2022-11-15T05:05:27;85.93;;;24.25;;
25810;SDS011;13645;52.460;13.910;2022-11-15T05:07:54;82.55;;;24.15;;
25810;SDS011;13645;52.460;13.910;2022-11-15T05:10:21;103.75;;;24.20;;
25810;SDS011;13645;52.460;13.910;2022-11-15T05:12:48;67.95;;;24.42;;
25810;SDS011;13645;52.460;13.910;2022-11-15T05:15:15;68.03;;;24.92;;
25810;SDS011;13645;52.460;13.910;2022-11-15T05:17:41;165.95;;;26.33;;
25810;SDS011;13645;52.460;13.910;2022-11-15T05:20:08;113.25;;;26.00;;
25810;SDS011;13645;52.460;13.910;2022-11-15T05:22:36;179.65;;;26.25;;
25810;SDS011;13645;52.460;13.910;2022-11-15T05:25:02;152.20;;;26.92;;
25810;SDS011;13645;52.460;13.910;2022-11-15T05:27:29;64.25;;;25.17;;
25810;SDS011;13645;52.460;13.910;2022-11-15T05:29:56;101.72;;;25.70;;
25810;SDS011;13645;52.460;13.910;2022-11-15T05:32:23;145.38;;;26.80;;
25810;SDS011;13645;52.460;13.910;2022-11-15T05:34:50;78.25;;;24.75;;
25810;SDS011;13645;52.460;13.910;2022-11-15T05:37:17;64.20;;;25.25;;
25810;SDS011;13645;52.460;13.910;2022-11-15T05:39:44;86.90;;;25.88;;
25810;SDS011;13645;52.460;13.910;2022-11-15T05:42:11;42.65;;;26.90;;
25810;SDS011;13645;52.460;13.910;2022-11-15T05:44:41;55.42;;;27.70;;
25810;SDS011;13645;52.460;13.910;2022-11-15T05:47:11;78.35;;;27.35;;
25810;SDS011;13645;52.460;13.910;2022-11-15T05:49:43;126.55;;;26.27;;
25810;SDS011;13645;52.460;13.910;2022-11-15T05:52:11;316.15;;;29.27;;
25810;SDS011;13645;52.460;13.910;2022-11-15T05:54:41;106.05;;;27.00;;
25810;SDS011;13645;52.460;13.910;2022-11-15T05:57:08;67.40;;;26.98;;
25810;SDS011;13645;52.460;13.910;2022-11-15T05:59:35;98.93;;;26.17;;
25810;SDS011;13645;52.460;13.910;2022-11-15T06:02:02;198.40;;;27.85;;
25810;SDS011;13645;52.460;13.910;2022-11-15T06:04:29;61.75;;;24.85;;
25810;SDS011;13645;52.460;13.910;2022-11-15T06:06:55;128.55;;;25.02;;
25810;SDS011;13645;52.460;13.910;2022-11-15T06:09:24;93.85;;;25.45;;
25810;SDS011;13645;52.460;13.910;2022-11-15T06:11:51;213.02;;;25.73;;
25810;SDS011;13645;52.460;13.910;2022-11-15T06:14:18;244.70;;;27.00;;
25810;SDS011;13645;52.460;13.910;2022-11-15T06:16:45;66.40;;;23.45;;
25810;SDS011;13645;52.460;13.910;2022-11-15T06:19:11;55.53;;;23.20;;
25810;SDS011;13645;52.460;13.910;2022-11-15T06:21:38;111.05;;;24.10;;
25810;SDS011;13645;52.460;13.910;2022-11-15T06:24:05;108.22;;;22.17;;
25810;SDS011;13645;52.460;13.910;2022-11-15T06:26:32;34.40;;;20.38;;
25810;SDS011;13645;52.460;13.910;2022-11-15T06:28:59;41.08;;;21.55;;
25810;SDS011;13645;52.460;13.910;2022-11-15T06:31:25;49.53;;;23.05;;
25810;SDS011;13645;52.460;13.910;2022-11-15T06:33:52;67.70;;;21.83;;
25810;SDS011;13645;52.460;13.910;2022-11-15T06:36:19;33.30;;;22.88;;
25810;SDS011;13645;52.460;13.910;2022-11-15T06:38:46;56.28;;;23.42;;
25810;SDS011;13645;52.460;13.910;2022-11-15T06:41:13;37.72;;;23.00;;
25810;SDS011;13645;52.460;13.910;2022-11-15T06:43:41;86.22;;;23.90;;
25810;SDS011;13645;52.460;13.910;2022-11-15T06:46:07;139.88;;;24.08;;
25810;SDS011;13645;52.460;13.910;2022-11-15T06:48:35;67.55;;;22.92;;
25810;SDS011;13645;52.460;13.910;2022-11-15T06:51:02;103.13;;;23.25;;
25810;SDS011;13645;52.460;13.910;2022-11-15T06:53:30;74.05;;;24.77;;
25810;SDS011;13645;52.460;13.910;2022-11-15T06:55:59;72.70;;;24.73;;
25810;SDS011;13645;52.460;13.910;2022-11-15T06:58:26;126.82;;;26.92;;
25810;SDS011;13645;52.460;13.910;2022-11-15T07:00:53;85.53;;;26.20;;
25810;SDS011;13645;52.460;13.910;2022-11-15T07:03:24;96.85;;;27.20;;
25810;SDS011;13645;52.460;13.910;2022-11-15T07:05:51;135.82;;;28.75;;
25810;SDS011;13645;52.460;13.910;2022-11-15T07:08:19;163.23;;;27.63;;
25810;SDS011;13645;52.460;13.910;2022-11-15T07:10:47;143.73;;;27.45;;
25810;SDS011;13645;52.460;13.910;2022-11-15T07:13:14;124.80;;;25.80;;
25810;SDS011;13645;52.460;13.910;2022-11-15T07:15:40;143.10;;;28.13;;
25810;SDS011;13645;52.460;13.910;2022-11-15T07:18:07;156.20;;;28.08;;
25810;SDS011;13645;52.460;13.910;2022-11-15T07:20:34;105.63;;;26.98;;
25810;SDS011;13645;52.460;13.910;2022-11-15T07:23:04;116.97;;;25.95;;
25810;SDS011;13645;52.460;13.910;2022-11-15T07:25:31;156.98;;;27.20;;
25810;SDS011;13645;52.460;13.910;2022-11-15T07:27:59;141.00;;;26.23;;
25810;SDS011;13645;52.460;13.910;2022-11-15T07:30:26;135.95;;;26.48;;
25810;SDS011;13645;52.460;13.910;2022-11-15T07:32:54;125.00;;;25.27;;
25810;SDS011;13645;52.460;13.910;2022-11-15T07:35:26;109.68;;;25.38;;
25810;SDS011;13645;52.460;13.910;2022-11-15T07:40:25;38.88;;;24.35;;
25810;SDS011;13645;52.460;13.910;2022-11-15T07:42:59;44.60;;;26.80;;
25810;SDS011;13645;52.460;13.910;2022-11-15T07:45:27;43.05;;;26.13;;
25810;SDS011;13645;52.460;13.910;2022-11-15T07:47:54;44.88;;;27.42;;
25810;SDS011;13645;52.460;13.910;2022-11-15T07:50:22;43.80;;;27.00;;
25810;SDS011;13645;52.460;13.910;2022-11-15T07:52:56;42.42;;;26.30;;
25810;SDS011;13645;52.460;13.910;2022-11-15T07:55:24;46.25;;;26.92;;
25810;SDS011;13645;52.460;13.910;2022-11-15T07:57:53;41.85;;;26.20;;
25810;SDS011;13645;52.460;13.910;2022-11-15T08:00:30;39.60;;;25.75;;
25810;SDS011;13645;52.460;13.910;2022-11-15T08:03:01;43.95;;;26.45;;
25810;SDS011;13645;52.460;13.910;2022-11-15T08:05:29;38.85;;;25.45;;
25810;SDS011;13645;52.460;13.910;2022-11-15T08:07:56;43.88;;;26.98;;
25810;SDS011;13645;52.460;13.910;2022-11-15T08:10:23;42.10;;;27.70;;
25810;SDS011;13645;52.460;13.910;2022-11-15T08:13:00;41.90;;;26.67;;
25810;SDS011;13645;52.460;13.910;2022-11-15T08:15:28;42.03;;;26.75;;
25810;SDS011;13645;52.460;13.910;2022-11-15T08:17:56;42.00;;;27.70;;
25810;SDS011;13645;52.460;13.910;2022-11-15T08:20:24;42.83;;;27.95;;
25810;SDS011;13645;52.460;13.910;2022-11-15T08:22:52;42.35;;;27.33;;
25810;SDS011;13645;52.460;13.910;2022-11-15T08:25:19;45.92;;;29.55;;
25810;SDS011;13645;52.460;13.910;2022-11-15T08:27:46;46.30;;;29.27;;
25810;SDS011;13645;52.460;13.910;2022-11-15T08:30:12;43.30;;;27.25;;
25810;SDS011;13645;52.460;13.910;2022-11-15T08:32:41;50.70;;;31.10;;
25810;SDS011;13645;52.460;13.910;2022-11-15T08:35:08;43.35;;;27.45;;
25810;SDS011;13645;52.460;13.910;2022-11-15T08:37:35;49.25;;;30.13;;
25810;SDS011;13645;52.460;13.910;2022-11-15T08:40:03;46.20;;;30.30;;
25810;SDS011;13645;52.460;13.910;2022-11-15T08:42:31;50.80;;;32.22;;
25810;SDS011;13645;52.460;13.910;2022-11-15T08:44:57;53.10;;;32.17;;
25810;SDS011;13645;52.460;13.910;2022-11-15T08:47:24;49.88;;;31.10;;
25810;SDS011;13645;52.460;13.910;2022-11-15T08:49:51;53.83;;;32.08;;
25810;SDS011;13645;52.460;13.910;2022-11-15T08:52:18;53.45;;;32.22;;
25810;SDS011;13645;52.460;13.910;2022-11-15T08:54:45;54.22;;;31.83;;
25810;SDS011;13645;52.460;13.910;2022-11-15T08:57:11;49.20;;;31.17;;
25810;SDS011;13645;52.460;13.910;2022-11-15T08:59:38;54.50;;;31.30;;
25810;SDS011;13645;52.460;13.910;2022-11-15T09:02:05;53.97;;;33.67;;
25810;SDS011;13645;52.460;13.910;2022-11-15T09:04:32;55.20;;;33.20;;
25810;SDS011;13645;52.460;13.910;2022-11-15T09:06:59;64.05;;;36.10;;
25810;SDS011;13645;52.460;13.910;2022-11-15T09:09:26;63.65;;;36.17;;
25810;SDS011;13645;52.460;13.910;2022-11-15T09:11:52;61.35;;;35.60;;
25810;SDS011;13645;52.460;13.910;2022-11-15T09:14:26;64.38;;;37.75;;
25810;SDS011;13645;52.460;13.910;2022-11-15T09:16:52;66.05;;;38.47;;
25810;SDS011;13645;52.460;13.910;2022-11-15T09:19:19;73.75;;;39.70;;
25810;SDS011;13645;52.460;13.910;2022-11-15T09:21:46;65.45;;;36.85;;
25810;SDS011;13645;52.460;13.910;2022-11-15T09:24:13;76.35;;;40.38;;
25810;SDS011;13645;52.460;13.910;2022-11-15T09:26:40;67.38;;;38.03;;
25810;SDS011;13645;52.460;13.910;2022-11-15T09:29:07;63.20;;;37.13;;
25810;SDS011;13645;52.460;13.910;2022-11-15T09:31:33;79.25;;;41.60;;
25810;SDS011;13645;52.460;13.910;2022-11-15T09:34:00;73.40;;;39.80;;
25810;SDS011;13645;52.460;13.910;2022-11-15T09:36:26;72.05;;;38.45;;
25810;SDS011;13645;52.460;13.910;2022-11-15T09:38:53;65.88;;;37.13;;
25810;SDS011;13645;52.460;13.910;2022-11-15T09:49:36;56.83;;;33.97;;
25810;SDS011;13645;52.460;13.910;2022-11-15T09:52:03;60.85;;;34.13;;
25810;SDS011;13645;52.460;13.910;2022-11-15T09:57:30;50.97;;;31.63;;
25810;SDS011;13645;52.460;13.910;2022-11-15T10:00:08;46.78;;;30.70;;
25810;SDS011;13645;52.460;13.910;2022-11-15T10:03:13;54.25;;;31.25;;
25810;SDS011;13645;52.460;13.910;2022-11-15T10:05:52;46.97;;;29.63;;
25810;SDS011;13645;52.460;13.910;2022-11-15T10:08:28;45.33;;;28.02;;
25810;SDS011;13645;52.460;13.910;2022-11-15T10:11:05;42.40;;;27.42;;
25810;SDS011;13645;52.460;13.910;2022-11-15T10:13:56;45.72;;;28.23;;
25810;SDS011;13645;52.460;13.910;2022-11-15T10:22:00;41.58;;;27.92;;
25810;SDS011;13645;52.460;13.910;2022-11-15T10:24:39;39.35;;;25.55;;
25810;SDS011;13645;52.460;13.910;2022-11-15T10:27:10;34.15;;;23.00;;
25810;SDS011;13645;52.460;13.910;2022-11-15T10:29:43;37.30;;;24.67;;
25810;SDS011;13645;52.460;13.910;2022-11-15T10:32:12;36.22;;;23.30;;
25810;SDS011;13645;52.460;13.910;2022-11-15T10:34:40;37.05;;;23.08;;
25810;SDS011;13645;52.460;13.910;2022-11-15T10:37:07;32.90;;;22.42;;
25810;SDS011;13645;52.460;13.910;2022-11-15T10:39:34;31.73;;;21.92;;
25810;SDS011;13645;52.460;13.910;2022-11-15T10:44:51;29.55;;;20.75;;
25810;SDS011;13645;52.460;13.910;2022-11-15T10:47:25;32.40;;;21.77;;
25810;SDS011;13645;52.460;13.910;2022-11-15T10:49:54;28.42;;;18.10;;
25810;SDS011;13645;52.460;13.910;2022-11-15T10:52:23;29.33;;;19.73;;
25810;SDS011;13645;52.460;13.910;2022-11-15T10:54:52;32.53;;;20.13;;
25810;SDS011;13645;52.460;13.910;2022-11-15T10:57:38;29.27;;;18.52;;
25810;SDS011;13645;52.460;13.910;2022-11-15T11:00:07;25.50;;;18.10;;
25810;SDS011;13645;52.460;13.910;2022-11-15T11:06:14;27.00;;;17.58;;
25810;SDS011;13645;52.460;13.910;2022-11-15T11:11:25;22.73;;;16.45;;
25810;SDS011;13645;52.460;13.910;2022-11-15T11:14:13;22.65;;;16.23;;
25810;SDS011;13645;52.460;13.910;2022-11-15T11:16:51;23.33;;;15.85;;
25810;SDS011;13645;52.460;13.910;2022-11-15T11:19:31;20.85;;;15.65;;
25810;SDS011;13645;52.460;13.910;2022-11-15T11:22:42;21.42;;;15.20;;
25810;SDS011;13645;52.460;13.910;2022-11-15T11:33:29;23.58;;;16.00;;
25810;SDS011;13645;52.460;13.910;2022-11-15T11:36:16;23.45;;;15.45;;
25810;SDS011;13645;52.460;13.910;2022-11-15T11:39:11;19.92;;;13.43;;
25810;SDS011;13645;52.460;13.910;2022-11-15T11:47:51;19.83;;;12.45;;
25810;SDS011;13645;52.460;13.910;2022-11-15T11:50:29;17.58;;;12.05;;
25810;SDS011;13645;52.460;13.910;2022-11-15T11:56:15;19.13;;;12.60;;
25810;SDS011;13645;52.460;13.910;2022-11-15T11:58:26;16.38;;;11.65;;
25810;SDS011;13645;52.460;13.910;2022-11-15T12:04:05;17.88;;;11.32;;
25810;SDS011;13645;52.460;13.910;2022-11-15T12:06:50;16.98;;;11.70;;
25810;SDS011;13645;52.460;13.910;2022-11-15T12:12:38;15.93;;;11.30;;
25810;SDS011;13645;52.460;13.910;2022-11-15T12:17:35;19.13;;;13.00;;
25810;SDS011;13645;52.460;13.910;2022-11-15T12:20:06;19.63;;;11.73;;
25810;SDS011;13645;52.460;13.910;2022-11-15T12:22:43;14.27;;;10.52;;
25810;SDS011;13645;52.460;13.910;2022-11-15T12:30:55;14.57;;;10.57;;
25810;SDS011;13645;52.460;13.910;2022-11-15T12:33:31;16.63;;;11.05;;
25810;SDS011;13645;52.460;13.910;2022-11-15T12:36:03;17.33;;;10.32;;
25810;SDS011;13645;52.460;13.910;2022-11-15T12:38:54;17.27;;;9.70;;
25810;SDS011;13645;52.460;13.910;2022-11-15T12:41:20;13.10;;;9.70;;
25810;SDS011;13645;52.460;13.910;2022-11-15T12:43:48;16.67;;;10.38;;
25810;SDS011;13645;52.460;13.910;2022-11-15T13:02:19;15.40;;;9.35;;
25810;SDS011;13645;52.460;13.910;2022-11-15T13:04:50;12.45;;;8.23;;
25810;SDS011;13645;52.460;13.910;2022-11-15T13:17:40;9.82;;;7.97;;
25810;SDS011;13645;52.460;13.910;2022-11-15T13:28:18;11.50;;;8.40;;
25810;SDS011;13645;52.460;13.910;2022-11-15T13:30:57;11.15;;;7.97;;
25810;SDS011;13645;52.460;13.910;2022-11-15T13:33:33;12.85;;;8.27;;
25810;SDS011;13645;52.460;13.910;2022-11-15T13:36:03;14.02;;;8.25;;
25810;SDS011;13645;52.460;13.910;2022-11-15T13:38:31;12.60;;;8.52;;
25810;SDS011;13645;52.460;13.910;2022-11-15T13:41:10;14.93;;;9.43;;
25810;SDS011;13645;52.460;13.910;2022-11-15T13:43:43;13.05;;;9.85;;
25810;SDS011;13645;52.460;13.910;2022-11-15T13:46:15;17.08;;;10.35;;
25810;SDS011;13645;52.460;13.910;2022-11-15T13:48:44;17.88;;;11.35;;
25810;SDS011;13645;52.460;13.910;2022-11-15T13:51:21;17.00;;;11.75;;
25810;SDS011;13645;52.460;13.910;2022-11-15T13:56:54;20.92;;;13.38;;
25810;SDS011;13645;52.460;13.910;2022-11-15T13:59:29;17.23;;;13.05;;
25810;SDS011;13645;52.460;13.910;2022-11-15T14:02:11;18.77;;;12.93;;
25810;SDS011;13645;52.460;13.910;2022-11-15T14:04:45;17.52;;;11.73;;
25810;SDS011;13645;52.460;13.910;2022-11-15T14:07:16;18.50;;;12.63;;
25810;SDS011;13645;52.460;13.910;2022-11-15T14:09:45;16.50;;;11.93;;
25810;SDS011;13645;52.460;13.910;2022-11-15T14:14:56;17.27;;;11.93;;
25810;SDS011;13645;52.460;13.910;2022-11-15T14:19:54;17.90;;;12.88;;
25810;SDS011;13645;52.460;13.910;2022-11-15T14:22:26;23.15;;;12.70;;
25810;SDS011;13645;52.460;13.910;2022-11-15T14:28:07;21.75;;;13.50;;
25810;SDS011;13645;52.460;13.910;2022-11-15T14:30:41;24.55;;;12.73;;
25810;SDS011;13645;52.460;13.910;2022-11-15T14:33:28;29.25;;;13.48;;
25810;SDS011;13645;52.460;13.910;2022-11-15T14:36:01;24.73;;;14.15;;
25810;SDS011;13645;52.460;13.910;2022-11-15T14:38:47;27.27;;;13.68;;
25810;SDS011;13645;52.460;13.910;2022-11-15T14:41:18;22.58;;;15.20;;
25810;SDS011;13645;52.460;13.910;2022-11-15T14:43:45;23.10;;;15.90;;
25810;SDS011;13645;52.460;13.910;2022-11-15T14:46:12;24.95;;;15.13;;
25810;SDS011;13645;52.460;13.910;2022-11-15T14:48:39;23.05;;;14.77;;
25810;SDS011;13645;52.460;13.910;2022-11-15T14:51:18;20.80;;;13.43;;
25810;SDS011;13645;52.460;13.910;2022-11-15T14:53:45;22.65;;;14.38;;
25810;SDS011;13645;52.460;13.910;2022-11-15T14:56:13;23.15;;;15.27;;
25810;SDS011;13645;52.460;13.910;2022-11-15T14:58:40;28.70;;;18.80;;
25810;SDS011;13645;52.460;13.910;2022-11-15T15:03:38;27.20;;;20.10;;
25810;SDS011;13645;52.460;13.910;2022-11-15T15:06:05;28.83;;;20.67;;
25810;SDS011;13645;52.460;13.910;2022-11-15T15:08:41;30.83;;;20.92;;
25810;SDS011;13645;52.460;13.910;2022-11-15T15:11:30;35.70;;;23.40;;
25810;SDS011;13645;52.460;13.910;2022-11-15T15:13:56;36.33;;;23.50;;
25810;SDS011;13645;52.460;13.910;2022-11-15T15:16:24;31.30;;;23.40;;
25810;SDS011;13645;52.460;13.910;2022-11-15T15:18:52;36.38;;;24.30;;
25810;SDS011;13645;52.460;13.910;2022-11-15T15:21:28;35.25;;;24.80;;
25810;SDS011;13645;52.460;13.910;2022-11-15T15:24:02;35.35;;;26.33;;
25810;SDS011;13645;52.460;13.910;2022-11-15T15:26:29;37.33;;;25.65;;
25810;SDS011;13645;52.460;13.910;2022-11-15T15:28:59;40.72;;;26.17;;
25810;SDS011;13645;52.460;13.910;2022-11-15T15:31:26;34.55;;;24.73;;
25810;SDS011;13645;52.460;13.910;2022-11-15T15:33:53;38.72;;;26.40;;
25810;SDS011;13645;52.460;13.910;2022-11-15T15:36:19;38.65;;;27.85;;
25810;SDS011;13645;52.460;13.910;2022-11-15T15:38:46;38.65;;;26.58;;
25810;SDS011;13645;52.460;13.910;2022-11-15T15:41:13;41.08;;;27.02;;
25810;SDS011;13645;52.460;13.910;2022-11-15T15:43:41;42.28;;;28.77;;
25810;SDS011;13645;52.460;13.910;2022-11-15T15:46:12;40.47;;;27.77;;
25810;SDS011;13645;52.460;13.910;2022-11-15T15:48:41;44.10;;;29.08;;
25810;SDS011;13645;52.460;13.910;2022-11-15T15:51:07;41.45;;;28.20;;
25810;SDS011;13645;52.460;13.910;2022-11-15T15:53:45;44.22;;;29.63;;
25810;SDS011;13645;52.460;13.910;2022-11-15T15:56:12;45.58;;;30.27;;
25810;SDS011;13645;52.460;13.910;2022-11-15T15:58:38;44.55;;;30.48;;
25810;SDS011;13645;52.460;13.910;2022-11-15T16:01:05;43.20;;;29.35;;
25810;SDS011;13645;52.460;13.910;2022-11-15T16:03:32;45.38;;;30.35;;
25810;SDS011;13645;52.460;13.910;2022-11-15T16:05:59;47.42;;;31.20;;
25810;SDS011;13645;52.460;13.910;2022-11-15T16:08:25;47.45;;;31.23;;
25810;SDS011;13645;52.460;13.910;2022-11-15T16:11:03;49.33;;;31.85;;
25810;SDS011;13645;52.460;13.910;2022-11-15T16:13:32;48.80;;;30.60;;
25810;SDS011;13645;52.460;13.910;2022-11-15T16:15:58;46.22;;;31.05;;
25810;SDS011;13645;52.460;13.910;2022-11-15T16:18:26;59.20;;;32.45;;
25810;SDS011;13645;52.460;13.910;2022-11-15T16:20:53;47.60;;;31.73;;
25810;SDS011;13645;52.460;13.910;2022-11-15T16:23:22;49.85;;;32.00;;
25810;SDS011;13645;52.460;13.910;2022-11-15T16:25:51;53.55;;;31.48;;
25810;SDS011;13645;52.460;13.910;2022-11-15T16:31:26;44.72;;;29.60;;
25810;SDS011;13645;52.460;13.910;2022-11-15T16:33:48;45.67;;;30.00;;
25810;SDS011;13645;52.460;13.910;2022-11-15T16:36:18;45.80;;;29.92;;
25810;SDS011;13645;52.460;13.910;2022-11-15T16:38:56;45.67;;;30.45;;
25810;SDS011;13645;52.460;13.910;2022-11-15T16:41:22;51.85;;;31.25;;
25810;SDS011;13645;52.460;13.910;2022-11-15T16:43:49;43.92;;;29.45;;
25810;SDS011;13645;52.460;13.910;2022-11-15T16:46:17;51.78;;;31.23;;
25810;SDS011;13645;52.460;13.910;2022-11-15T16:48:46;46.90;;;29.15;;
25810;SDS011;13645;52.460;13.910;2022-11-15T16:51:14;54.88;;;31.98;;
25810;SDS011;13645;52.460;13.910;2022-11-15T16:53:41;43.45;;;28.50;;
25810;SDS011;13645;52.460;13.910;2022-11-15T16:56:12;49.85;;;31.90;;
25810;SDS011;13645;52.460;13.910;2022-11-15T16:58:47;46.85;;;30.88;;
25810;SDS011;13645;52.460;13.910;2022-11-15T17:01:16;49.72;;;31.13;;
25810;SDS011;13645;52.460;13.910;2022-11-15T17:03:44;47.03;;;31.77;;
25810;SDS011;13645;52.460;13.910;2022-11-15T17:06:11;54.53;;;33.40;;